Time,TemperatureF,DewpointF,PressureIn,WindDirection,WindDirectionDegrees,WindSpeedMPH,WindSpeedGustMPH,Humidity,HourlyPrecipIn,Conditions,Clouds,dailyrainin,SolarRadiationWatts/m^2,SoftwareType,DateUTC
2016-11-02 00:04:00,67.1,54.5,30.07,South,190,4.0,9.0,64,0.00,,,0.00,0,WeatherCatV3.00B811,2016-11-02 04:04:00,
2016-11-02 00:09:00,67.2,54.6,30.07,SSW,197,6.0,10.0,64,0.00,,,0.00,0,WeatherCatV3.00B811,2016-11-02 04:09:00,
2016-11-02 00:14:00,67.1,54.5,30.07,SSW,192,7.0,8.0,64,0.00,,,0.00,0,WeatherCatV3.00B811,2016-11-02 04:14:00,
2016-11-02 00:19:00,67.0,54.4,30.08,South,190,9.0,9.0,64,0.00,,,0.00,0,WeatherCatV3.00B811,2016-11-02 04:19:00,
2016-11-02 00:24:00,66.9,54.7,30.08,SW,214,4.0,7.0,65,0.00,,,0.00,0,WeatherCatV3.00B811,2016-11-02 04:24:00,
2016-11-02 00:29:00,66.7,54.5,30.08,SSW,198,7.0,7.0,65,0.00,,,0.00,0,WeatherCatV3.00B811,2016-11-02 04:29:00,
2016-11-02 00:34:00,66.6,54.5,30.08,SSE,165,8.0,8.0,65,0.00,,,0.00,0,WeatherCatV3.00B811,2016-11-02 04:34:00,
2016-11-02 00:39:00,66.4,54.3,30.08,SSW,210,4.0,4.0,65,0.00,,,0.00,0,WeatherCatV3.00B811,2016-11-02 04:39:00,
2016-11-02 00:44:00,66.4,54.3,30.08,SW,236,2.0,6.0,65,0.00,,,0.00,0,WeatherCatV3.00B811,2016-11-02 04:44:00,
2016-11-02 00:49:00,66.4,54.3,30.08,SW,215,3.0,7.0,65,0.00,,,0.00,0,WeatherCatV3.00B811,2016-11-02 04:49:00,
2016-11-02 00:54:00,66.5,54.4,30.08,South,188,6.0,10.0,65,0.00,,,0.00,0,WeatherCatV3.00B811,2016-11-02 04:54:00,
2016-11-02 00:59:00,66.6,54.5,30.08,WSW,239,2.0,5.0,65,0.00,,,0.00,0,WeatherCatV3.00B811,2016-11-02 04:59:00,
2016-11-02 01:04:00,66.5,54.4,30.08,WSW,237,4.0,8.0,65,0.00,,,0.00,0,WeatherCatV3.00B811,2016-11-02 05:04:00,
2016-11-02 01:09:00,66.5,54.4,30.08,SSW,196,7.0,8.0,65,0.00,,,0.00,0,WeatherCatV3.00B811,2016-11-02 05:09:00,
2016-11-02 01:14:00,66.5,54.4,30.09,SW,229,2.0,5.0,65,0.00,,,0.00,0,WeatherCatV3.00B811,2016-11-02 05:14:00,
2016-11-02 01:19:00,66.5,53.9,30.09,WSW,240,2.0,8.0,64,0.00,,,0.00,0,WeatherCatV3.00B811,2016-11-02 05:19:00,
2016-11-02 01:24:00,66.4,54.3,30.09,SW,215,7.0,8.0,65,0.00,,,0.00,0,WeatherCatV3.00B811,2016-11-02 05:24:00,
2016-11-02 01:29:00,66.4,54.3,30.09,SSW,200,3.0,7.0,65,0.00,,,0.00,0,WeatherCatV3.00B811,2016-11-02 05:29:00,
2016-11-02 01:34:00,66.3,54.2,30.09,South,182,7.0,9.0,65,0.00,,,0.00,0,WeatherCatV3.00B811,2016-11-02 05:34:00,
2016-11-02 01:39:00,66.2,54.1,30.09,SSW,212,3.0,3.0,65,0.00,,,0.00,0,WeatherCatV3.00B811,2016-11-02 05:39:00,
2016-11-02 01:44:00,66.1,54.0,30.09,SSW,197,6.0,7.0,65,0.00,,,0.00,0,WeatherCatV3.00B811,2016-11-02 05:44:00,
2016-11-02 01:49:00,65.9,53.8,30.09,SW,217,2.0,8.0,65,0.00,,,0.00,0,WeatherCatV3.00B811,2016-11-02 05:49:00,
2016-11-02 01:54:00,65.8,54.1,30.09,SW,217,2.0,5.0,66,0.00,,,0.00,0,WeatherCatV3.00B811,2016-11-02 05:54:00,
2016-11-02 01:59:00,65.6,53.9,30.09,SW,228,2.0,7.0,66,0.00,,,0.00,0,WeatherCatV3.00B811,2016-11-02 05:59:00,
2016-11-02 02:04:00,65.5,53.8,30.09,SSW,196,3.0,7.0,66,0.00,,,0.00,0,WeatherCatV3.00B811,2016-11-02 06:04:00,
2016-11-02 02:09:00,65.3,53.6,30.09,SSW,205,6.0,6.0,66,0.00,,,0.00,0,WeatherCatV3.00B811,2016-11-02 06:09:00,
2016-11-02 02:14:00,65.1,53.9,30.09,SSW,204,4.0,4.0,67,0.00,,,0.00,0,WeatherCatV3.00B811,2016-11-02 06:14:00,
2016-11-02 02:19:00,64.8,53.6,30.09,SSW,194,7.0,8.0,67,0.00,,,0.00,0,WeatherCatV3.00B811,2016-11-02 06:19:00,
2016-11-02 02:24:00,64.6,53.4,30.09,South,190,6.0,6.0,67,0.00,,,0.00,0,WeatherCatV3.00B811,2016-11-02 06:24:00,
2016-11-02 02:29:00,64.5,53.7,30.10,SSW,205,5.0,8.0,68,0.00,,,0.00,0,WeatherCatV3.00B811,2016-11-02 06:29:00,
2016-11-02 02:34:00,64.3,53.5,30.10,SSW,213,3.0,7.0,68,0.00,,,0.00,0,WeatherCatV3.00B811,2016-11-02 06:34:00,
2016-11-02 02:39:00,64.2,53.8,30.10,South,183,3.0,6.0,69,0.00,,,0.00,0,WeatherCatV3.00B811,2016-11-02 06:39:00,
2016-11-02 02:44:00,64.1,53.7,30.10,South,190,7.0,7.0,69,0.00,,,0.00,0,WeatherCatV3.00B811,2016-11-02 06:44:00,
2016-11-02 02:49:00,64.0,53.6,30.10,SW,228,3.0,3.0,69,0.00,,,0.00,0,WeatherCatV3.00B811,2016-11-02 06:49:00,
2016-11-02 02:54:00,63.9,53.5,30.10,SSW,192,4.0,6.0,69,0.00,,,0.00,0,WeatherCatV3.00B811,2016-11-02 06:54:00,
2016-11-02 02:59:00,63.8,53.4,30.10,SSW,202,3.0,5.0,69,0.00,,,0.00,0,WeatherCatV3.00B811,2016-11-02 06:59:00,
2016-11-02 03:04:00,63.7,53.7,30.10,SSW,201,0.0,1.0,70,0.00,,,0.00,0,WeatherCatV3.00B811,2016-11-02 07:04:00,
2016-11-02 03:09:00,63.5,53.5,30.10,South,182,0.0,2.0,70,0.00,,,0.00,0,WeatherCatV3.00B811,2016-11-02 07:09:00,
2016-11-02 03:14:00,63.4,53.4,30.10,SSW,209,0.0,2.0,70,0.00,,,0.00,0,WeatherCatV3.00B811,2016-11-02 07:14:00,
2016-11-02 03:19:00,63.3,53.7,30.10,South,186,0.0,3.0,71,0.00,,,0.00,0,WeatherCatV3.00B811,2016-11-02 07:19:00,
2016-11-02 03:24:00,63.3,53.7,30.10,SSW,204,0.0,2.0,71,0.00,,,0.00,0,WeatherCatV3.00B811,2016-11-02 07:24:00,
2016-11-02 03:29:00,63.3,53.7,30.10,SSW,202,2.0,4.0,71,0.00,,,0.00,0,WeatherCatV3.00B811,2016-11-02 07:29:00,
2016-11-02 03:34:00,63.4,53.8,30.10,SSW,195,1.0,3.0,71,0.00,,,0.00,0,WeatherCatV3.00B811,2016-11-02 07:34:00,
2016-11-02 03:39:00,63.4,53.8,30.10,South,182,1.0,3.0,71,0.00,,,0.00,0,WeatherCatV3.00B811,2016-11-02 07:39:00,
2016-11-02 03:44:00,63.4,53.8,30.10,SSW,200,0.0,4.0,71,0.00,,,0.00,0,WeatherCatV3.00B811,2016-11-02 07:44:00,
2016-11-02 03:49:00,63.4,53.8,30.10,SSW,195,4.0,4.0,71,0.00,,,0.00,0,WeatherCatV3.00B811,2016-11-02 07:49:00,
2016-11-02 03:54:00,63.4,53.8,30.10,SSW,203,0.0,6.0,71,0.00,,,0.00,0,WeatherCatV3.00B811,2016-11-02 07:54:00,
2016-11-02 03:59:00,63.5,53.9,30.10,SSW,204,0.0,2.0,71,0.00,,,0.00,0,WeatherCatV3.00B811,2016-11-02 07:59:00,
2016-11-02 04:04:00,63.5,53.9,30.10,South,189,5.0,5.0,71,0.00,,,0.00,0,WeatherCatV3.00B811,2016-11-02 08:04:00,
2016-11-02 04:09:00,63.4,53.8,30.10,South,174,2.0,3.0,71,0.00,,,0.00,0,WeatherCatV3.00B811,2016-11-02 08:09:00,
2016-11-02 04:14:00,63.5,53.9,30.10,South,179,2.0,6.0,71,0.00,,,0.00,0,WeatherCatV3.00B811,2016-11-02 08:14:00,
2016-11-02 04:19:00,63.6,54.0,30.09,South,187,0.0,5.0,71,0.00,,,0.00,0,WeatherCatV3.00B811,2016-11-02 08:19:00,
2016-11-02 04:24:00,63.7,53.7,30.10,SSW,200,0.0,4.0,70,0.00,,,0.00,0,WeatherCatV3.00B811,2016-11-02 08:24:00,
2016-11-02 04:29:00,63.7,53.7,30.09,SSW,202,0.0,6.0,70,0.00,,,0.00,0,WeatherCatV3.00B811,2016-11-02 08:29:00,
2016-11-02 04:34:00,63.7,53.7,30.09,South,188,3.0,6.0,70,0.00,,,0.00,0,WeatherCatV3.00B811,2016-11-02 08:34:00,
2016-11-02 04:39:00,63.8,53.8,30.10,South,191,4.0,9.0,70,0.00,,,0.00,0,WeatherCatV3.00B811,2016-11-02 08:39:00,
2016-11-02 04:44:00,63.9,53.9,30.10,SSW,192,4.0,5.0,70,0.00,,,0.00,0,WeatherCatV3.00B811,2016-11-02 08:44:00,
2016-11-02 04:49:00,64.0,54.0,30.10,SSW,198,2.0,5.0,70,0.00,,,0.00,0,WeatherCatV3.00B811,2016-11-02 08:49:00,
2016-11-02 04:54:00,64.1,53.7,30.10,South,190,0.0,4.0,69,0.00,,,0.00,0,WeatherCatV3.00B811,2016-11-02 08:54:00,
2016-11-02 04:59:00,64.2,53.8,30.10,South,188,3.0,3.0,69,0.00,,,0.00,0,WeatherCatV3.00B811,2016-11-02 08:59:00,
2016-11-02 05:04:00,64.3,53.9,30.10,South,186,0.0,4.0,69,0.00,,,0.00,0,WeatherCatV3.00B811,2016-11-02 09:04:00,
2016-11-02 05:09:00,64.3,53.9,30.10,SSW,192,3.0,4.0,69,0.00,,,0.00,0,WeatherCatV3.00B811,2016-11-02 09:09:00,
2016-11-02 05:14:00,64.3,53.9,30.10,SSW,202,2.0,6.0,69,0.00,,,0.00,0,WeatherCatV3.00B811,2016-11-02 09:14:00,
2016-11-02 05:19:00,64.3,53.9,30.10,South,181,0.0,5.0,69,0.00,,,0.00,0,WeatherCatV3.00B811,2016-11-02 09:19:00,
2016-11-02 05:24:00,64.3,53.9,30.10,South,188,1.0,3.0,69,0.00,,,0.00,0,WeatherCatV3.00B811,2016-11-02 09:24:00,
2016-11-02 05:29:00,64.2,53.8,30.10,SSW,196,4.0,4.0,69,0.00,,,0.00,0,WeatherCatV3.00B811,2016-11-02 09:29:00,
2016-11-02 05:34:00,64.1,54.1,30.10,SSW,196,0.0,4.0,70,0.00,,,0.00,0,WeatherCatV3.00B811,2016-11-02 09:34:00,
2016-11-02 05:39:00,64.1,54.1,30.10,SSW,196,0.0,4.0,70,0.00,,,0.00,0,WeatherCatV3.00B811,2016-11-02 09:39:00,
2016-11-02 05:44:00,64.0,54.0,30.10,SSW,199,0.0,3.0,70,0.00,,,0.00,0,WeatherCatV3.00B811,2016-11-02 09:44:00,
2016-11-02 05:49:00,63.9,53.9,30.10,South,190,2.0,3.0,70,0.00,,,0.00,0,WeatherCatV3.00B811,2016-11-02 09:49:00,
2016-11-02 05:54:00,63.9,53.9,30.10,South,186,2.0,4.0,70,0.00,,,0.00,0,WeatherCatV3.00B811,2016-11-02 09:54:00,
2016-11-02 05:59:00,63.8,53.8,30.10,South,190,2.0,4.0,70,0.00,,,0.00,0,WeatherCatV3.00B811,2016-11-02 09:59:00,
2016-11-02 06:04:00,63.7,54.1,30.10,South,188,2.0,3.0,71,0.00,,,0.00,0,WeatherCatV3.00B811,2016-11-02 10:04:00,
2016-11-02 06:09:00,63.7,54.1,30.11,South,183,3.0,7.0,71,0.00,,,0.00,0,WeatherCatV3.00B811,2016-11-02 10:09:00,
2016-11-02 06:14:00,63.7,54.1,30.11,SSW,195,4.0,5.0,71,0.00,,,0.00,0,WeatherCatV3.00B811,2016-11-02 10:14:00,
2016-11-02 06:24:00,63.7,54.1,30.11,South,178,5.0,6.0,71,0.00,,,0.00,0,WeatherCatV3.00B811,2016-11-02 10:24:00,
2016-11-02 06:29:00,63.7,54.1,30.11,South,180,2.0,6.0,71,0.00,,,0.00,0,WeatherCatV3.00B811,2016-11-02 10:29:00,
2016-11-02 06:34:00,63.7,54.1,30.11,SSW,197,4.0,4.0,71,0.00,,,0.00,0,WeatherCatV3.00B811,2016-11-02 10:34:00,
2016-11-02 06:39:00,63.7,54.1,30.11,SSW,194,4.0,6.0,71,0.00,,,0.00,0,WeatherCatV3.00B811,2016-11-02 10:39:00,
2016-11-02 06:44:00,63.7,53.7,30.11,South,187,5.0,5.0,70,0.00,,,0.00,0,WeatherCatV3.00B811,2016-11-02 10:44:00,
2016-11-02 06:49:00,63.8,53.8,30.11,SSW,196,2.0,4.0,70,0.00,,,0.00,0,WeatherCatV3.00B811,2016-11-02 10:49:00,
2016-11-02 06:54:00,63.8,53.8,30.11,SSW,193,3.0,5.0,70,0.00,,,0.00,0,WeatherCatV3.00B811,2016-11-02 10:54:00,
2016-11-02 06:59:00,63.8,53.8,30.11,SSW,206,0.0,4.0,70,0.00,,,0.00,0,WeatherCatV3.00B811,2016-11-02 10:59:00,
2016-11-02 07:04:00,63.8,53.8,30.11,SSW,213,0.0,3.0,70,0.00,,,0.00,0,WeatherCatV3.00B811,2016-11-02 11:04:00,
2016-11-02 07:09:00,63.8,53.8,30.11,SSW,204,2.0,4.0,70,0.00,,,0.00,0,WeatherCatV3.00B811,2016-11-02 11:09:00,
2016-11-02 07:14:00,63.8,53.8,30.11,SSW,202,3.0,6.0,70,0.00,,,0.00,0,WeatherCatV3.00B811,2016-11-02 11:14:00,
2016-11-02 07:19:00,63.9,53.9,30.11,SSW,201,3.0,5.0,70,0.00,,,0.00,0,WeatherCatV3.00B811,2016-11-02 11:19:00,
2016-11-02 07:24:00,64.0,54.0,30.11,SSW,204,3.0,5.0,70,0.00,,,0.00,0,WeatherCatV3.00B811,2016-11-02 11:24:00,
2016-11-02 07:29:00,64.0,54.0,30.11,SSW,213,3.0,4.0,70,0.00,,,0.00,0,WeatherCatV3.00B811,2016-11-02 11:29:00,
2016-11-02 07:34:00,64.1,54.1,30.11,SSW,205,0.0,1.0,70,0.00,,,0.00,0,WeatherCatV3.00B811,2016-11-02 11:34:00,
2016-11-02 07:39:00,64.1,54.1,30.11,SSW,200,0.0,3.0,70,0.00,,,0.00,0,WeatherCatV3.00B811,2016-11-02 11:39:00,
2016-11-02 07:44:00,64.1,54.1,30.12,SW,214,0.0,0.0,70,0.00,,,0.00,0,WeatherCatV3.00B811,2016-11-02 11:44:00,
2016-11-02 07:49:00,64.1,54.1,30.12,SSW,197,0.0,0.0,70,0.00,,,0.00,0,WeatherCatV3.00B811,2016-11-02 11:49:00,
2016-11-02 07:54:00,64.1,54.1,30.12,SW,223,0.0,4.0,70,0.00,,,0.00,0,WeatherCatV3.00B811,2016-11-02 11:54:00,
2016-11-02 07:59:00,64.0,54.0,30.12,SSW,193,4.0,4.0,70,0.00,,,0.00,0,WeatherCatV3.00B811,2016-11-02 11:59:00,
2016-11-02 08:04:00,64.0,54.0,30.12,SSW,194,2.0,3.0,70,0.00,,,0.00,0,WeatherCatV3.00B811,2016-11-02 12:04:00,
2016-11-02 08:09:00,63.9,54.3,30.12,SSW,196,0.0,3.0,71,0.00,,,0.00,0,WeatherCatV3.00B811,2016-11-02 12:09:00,
2016-11-02 08:14:00,63.9,54.3,30.12,SSW,197,0.0,0.0,71,0.00,,,0.00,5,WeatherCatV3.00B811,2016-11-02 12:14:00,
2016-11-02 08:19:00,63.9,54.3,30.13,SSW,194,0.0,0.0,71,0.00,,,0.00,9,WeatherCatV3.00B811,2016-11-02 12:19:00,
2016-11-02 08:24:00,63.9,54.3,30.13,South,188,4.0,4.0,71,0.00,,,0.00,12,WeatherCatV3.00B811,2016-11-02 12:24:00,
2016-11-02 08:29:00,63.9,54.3,30.13,SSW,197,4.0,4.0,71,0.00,,,0.00,14,WeatherCatV3.00B811,2016-11-02 12:29:00,
2016-11-02 08:35:00,63.8,54.2,30.13,South,187,3.0,3.0,71,0.00,,,0.00,19,WeatherCatV3.00B811,2016-11-02 12:35:00,
2016-11-02 08:40:00,63.8,54.2,30.14,South,191,0.0,0.0,71,0.00,,,0.00,26,WeatherCatV3.00B811,2016-11-02 12:40:00,
2016-11-02 08:45:00,63.7,54.5,30.14,South,186,0.0,5.0,72,0.00,,,0.00,33,WeatherCatV3.00B811,2016-11-02 12:45:00,
2016-11-02 08:50:00,63.7,54.5,30.14,South,190,0.0,3.0,72,0.00,,,0.00,39,WeatherCatV3.00B811,2016-11-02 12:50:00,
2016-11-02 08:55:00,63.7,54.5,30.14,SSW,208,0.0,0.0,72,0.00,,,0.00,49,WeatherCatV3.00B811,2016-11-02 12:55:00,
2016-11-02 09:00:00,63.6,54.8,30.14,SSW,192,2.0,4.0,73,0.00,,,0.00,56,WeatherCatV3.00B811,2016-11-02 13:00:00,
2016-11-02 09:05:00,63.8,55.0,30.14,South,185,4.0,5.0,73,0.00,,,0.00,62,WeatherCatV3.00B811,2016-11-02 13:05:00,
2016-11-02 09:10:00,64.0,55.2,30.14,South,190,3.0,5.0,73,0.00,,,0.00,65,WeatherCatV3.00B811,2016-11-02 13:10:00,
2016-11-02 09:15:00,64.2,55.4,30.15,SSW,198,1.0,3.0,73,0.00,,,0.00,67,WeatherCatV3.00B811,2016-11-02 13:15:00,
2016-11-02 09:20:00,64.4,55.2,30.15,SSW,196,0.0,4.0,72,0.00,,,0.00,74,WeatherCatV3.00B811,2016-11-02 13:20:00,
2016-11-02 09:25:00,64.5,55.3,30.15,SSW,201,1.0,5.0,72,0.00,,,0.00,77,WeatherCatV3.00B811,2016-11-02 13:25:00,
2016-11-02 09:30:00,64.6,55.4,30.15,SSW,195,2.0,5.0,72,0.00,,,0.00,79,WeatherCatV3.00B811,2016-11-02 13:30:00,
2016-11-02 09:35:00,64.8,55.5,30.15,SSW,203,1.0,3.0,72,0.00,,,0.00,84,WeatherCatV3.00B811,2016-11-02 13:35:00,
2016-11-02 09:40:00,65.0,55.8,30.15,SSW,199,0.0,6.0,72,0.00,,,0.00,97,WeatherCatV3.00B811,2016-11-02 13:40:00,
2016-11-02 09:45:00,65.1,55.5,30.15,SSW,200,3.0,4.0,71,0.00,,,0.00,102,WeatherCatV3.00B811,2016-11-02 13:45:00,
2016-11-02 09:50:00,65.3,55.7,30.15,SSW,192,4.0,5.0,71,0.00,,,0.00,114,WeatherCatV3.00B811,2016-11-02 13:50:00,
2016-11-02 09:55:00,65.5,55.5,30.15,South,190,2.0,5.0,70,0.00,,,0.00,111,WeatherCatV3.00B811,2016-11-02 13:55:00,
2016-11-02 10:00:00,65.7,55.6,30.15,WSW,246,0.0,3.0,70,0.00,,,0.00,120,WeatherCatV3.00B811,2016-11-02 14:00:00,
2016-11-02 10:05:00,65.9,55.4,30.15,SSW,200,3.0,6.0,69,0.00,,,0.00,105,WeatherCatV3.00B811,2016-11-02 14:05:00,
2016-11-02 10:10:00,66.0,55.5,30.15,SSW,208,0.0,5.0,69,0.00,,,0.00,113,WeatherCatV3.00B811,2016-11-02 14:10:00,
2016-11-02 10:15:00,66.2,55.7,30.15,WSW,242,1.0,5.0,69,0.00,,,0.00,139,WeatherCatV3.00B811,2016-11-02 14:15:00,
2016-11-02 10:20:00,66.5,55.6,30.15,SSW,208,2.0,8.0,68,0.00,,,0.00,144,WeatherCatV3.00B811,2016-11-02 14:20:00,
2016-11-02 10:25:00,66.7,55.8,30.15,SSW,211,3.0,3.0,68,0.00,,,0.00,162,WeatherCatV3.00B811,2016-11-02 14:25:00,
2016-11-02 10:30:00,67.1,55.8,30.15,South,187,7.0,9.0,67,0.00,,,0.00,199,WeatherCatV3.00B811,2016-11-02 14:30:00,
2016-11-02 10:35:00,67.3,56.0,30.15,SW,219,0.0,6.0,67,0.00,,,0.00,167,WeatherCatV3.00B811,2016-11-02 14:35:00,
2016-11-02 10:40:00,67.4,56.0,30.15,SSW,207,1.0,4.0,67,0.00,,,0.00,183,WeatherCatV3.00B811,2016-11-02 14:40:00,
2016-11-02 10:45:00,67.6,55.8,30.15,SSW,194,5.0,8.0,66,0.00,,,0.00,146,WeatherCatV3.00B811,2016-11-02 14:45:00,
2016-11-02 10:50:00,67.7,56.3,30.15,SW,234,4.0,6.0,67,0.00,,,0.00,278,WeatherCatV3.00B811,2016-11-02 14:50:00,
2016-11-02 10:55:00,68.2,56.4,30.15,South,190,4.0,7.0,66,0.00,,,0.00,251,WeatherCatV3.00B811,2016-11-02 14:55:00,
2016-11-02 11:00:00,68.5,56.3,30.15,WSW,238,0.0,8.0,65,0.00,,,0.00,292,WeatherCatV3.00B811,2016-11-02 15:00:00,
2016-11-02 11:05:00,69.0,57.2,30.14,WSW,238,1.0,12.0,66,0.00,,,0.00,397,WeatherCatV3.00B811,2016-11-02 15:05:00,
2016-11-02 11:10:00,69.9,57.2,30.14,South,190,7.0,9.0,64,0.00,,,0.00,441,WeatherCatV3.00B811,2016-11-02 15:10:00,
2016-11-02 11:15:00,70.6,58.2,30.14,SW,219,2.0,11.0,65,0.00,,,0.00,482,WeatherCatV3.00B811,2016-11-02 15:15:00,
2016-11-02 11:20:00,71.1,57.8,30.14,WSW,238,3.0,11.0,63,0.00,,,0.00,424,WeatherCatV3.00B811,2016-11-02 15:20:00,
2016-11-02 11:25:00,71.4,57.7,30.14,SW,232,2.0,11.0,62,0.00,,,0.00,397,WeatherCatV3.00B811,2016-11-02 15:25:00,
2016-11-02 11:30:00,71.7,58.4,30.14,WSW,239,5.0,7.0,63,0.00,,,0.00,364,WeatherCatV3.00B811,2016-11-02 15:30:00,
2016-11-02 11:35:00,71.3,58.0,30.14,SW,218,2.0,5.0,63,0.00,,,0.00,304,WeatherCatV3.00B811,2016-11-02 15:35:00,
2016-11-02 11:40:00,71.4,57.7,30.14,SW,232,4.0,5.0,62,0.00,,,0.00,250,WeatherCatV3.00B811,2016-11-02 15:40:00,
2016-11-02 11:45:00,71.3,58.5,30.14,WSW,238,2.0,4.0,64,0.00,,,0.00,355,WeatherCatV3.00B811,2016-11-02 15:45:00,
2016-11-02 11:50:00,71.8,58.1,30.14,WSW,250,1.0,5.0,62,0.00,,,0.00,334,WeatherCatV3.00B811,2016-11-02 15:50:00,
2016-11-02 11:55:00,71.9,58.2,30.14,WSW,248,2.0,8.0,62,0.00,,,0.00,360,WeatherCatV3.00B811,2016-11-02 15:55:00,
2016-11-02 12:00:00,72.4,58.2,30.14,SW,223,5.0,8.0,61,0.00,,,0.00,439,WeatherCatV3.00B811,2016-11-02 16:00:00,
2016-11-02 12:05:00,72.7,58.0,30.14,SW,225,3.0,8.0,60,0.00,,,0.00,362,WeatherCatV3.00B811,2016-11-02 16:05:00,
2016-11-02 12:10:00,73.0,59.2,30.13,WSW,237,3.0,7.0,62,0.00,,,0.00,454,WeatherCatV3.00B811,2016-11-02 16:10:00,
2016-11-02 12:15:00,72.7,58.0,30.13,WSW,241,3.0,3.0,60,0.00,,,0.00,209,WeatherCatV3.00B811,2016-11-02 16:15:00,
2016-11-02 12:20:00,72.0,58.7,30.13,WSW,250,2.0,4.0,63,0.00,,,0.00,244,WeatherCatV3.00B811,2016-11-02 16:20:00,
2016-11-02 12:25:00,72.2,58.9,30.12,WSW,250,2.0,6.0,63,0.00,,,0.00,455,WeatherCatV3.00B811,2016-11-02 16:25:00,
2016-11-02 12:35:00,74.4,60.5,30.12,West,260,2.0,5.0,62,0.00,,,0.00,464,WeatherCatV3.00B811,2016-11-02 16:35:00,
2016-11-02 12:40:00,74.3,58.5,30.12,WSW,246,4.0,8.0,58,0.00,,,0.00,225,WeatherCatV3.00B811,2016-11-02 16:40:00,
2016-11-02 12:50:00,74.5,59.7,30.12,WSW,255,1.0,8.0,60,0.00,,,0.00,450,WeatherCatV3.00B811,2016-11-02 16:50:00,
2016-11-02 12:55:00,74.9,59.6,30.12,WSW,254,5.0,6.0,59,0.00,,,0.00,406,WeatherCatV3.00B811,2016-11-02 16:55:00,
2016-11-02 13:00:00,74.5,58.7,30.12,WSW,237,3.0,9.0,58,0.00,,,0.00,341,WeatherCatV3.00B811,2016-11-02 17:00:00,
2016-11-02 13:06:00,74.4,58.2,30.12,SW,218,2.0,10.0,57,0.00,,,0.00,403,WeatherCatV3.00B811,2016-11-02 17:06:00,
2016-11-02 13:11:00,74.5,58.7,30.11,SW,224,3.0,5.0,58,0.00,,,0.00,304,WeatherCatV3.00B811,2016-11-02 17:11:00,
2016-11-02 13:15:00,74.3,58.5,30.11,SW,236,3.0,5.0,58,0.00,,,0.00,244,WeatherCatV3.00B811,2016-11-02 17:15:00,
2016-11-02 13:20:00,73.9,58.7,30.11,WSW,255,8.0,10.0,59,0.00,,,0.00,214,WeatherCatV3.00B811,2016-11-02 17:20:00,
2016-11-02 13:26:00,73.8,58.6,30.11,SSW,206,3.0,7.0,59,0.00,,,0.00,272,WeatherCatV3.00B811,2016-11-02 17:26:00,
2016-11-02 13:31:00,74.9,60.1,30.11,WSW,244,3.0,6.0,60,0.00,,,0.00,573,WeatherCatV3.00B811,2016-11-02 17:31:00,
2016-11-02 13:36:00,75.6,59.8,30.11,WSW,256,5.0,8.0,58,0.00,,,0.00,269,WeatherCatV3.00B811,2016-11-02 17:36:00,
2016-11-02 13:41:00,74.6,58.3,30.11,WSW,240,3.0,7.0,57,0.00,,,0.00,218,WeatherCatV3.00B811,2016-11-02 17:41:00,
2016-11-02 13:46:00,74.2,58.0,30.10,SW,225,5.0,7.0,57,0.00,,,0.00,250,WeatherCatV3.00B811,2016-11-02 17:46:00,
2016-11-02 13:51:00,74.4,58.6,30.10,WSW,246,6.0,8.0,58,0.00,,,0.00,417,WeatherCatV3.00B811,2016-11-02 17:51:00,
2016-11-02 13:56:00,75.1,59.3,30.09,WSW,245,4.0,8.0,58,0.00,,,0.00,355,WeatherCatV3.00B811,2016-11-02 17:56:00,
2016-11-02 14:01:00,75.2,58.9,30.09,SW,227,3.0,6.0,57,0.00,,,0.00,357,WeatherCatV3.00B811,2016-11-02 18:01:00,
2016-11-02 14:06:00,75.1,59.3,30.09,WSW,244,2.0,5.0,58,0.00,,,0.00,425,WeatherCatV3.00B811,2016-11-02 18:06:00,
2016-11-02 14:11:00,75.5,59.2,30.09,WSW,255,4.0,7.0,57,0.00,,,0.00,388,WeatherCatV3.00B811,2016-11-02 18:11:00,
2016-11-02 14:16:00,75.6,59.8,30.09,West,262,4.0,8.0,58,0.00,,,0.00,362,WeatherCatV3.00B811,2016-11-02 18:16:00,
2016-11-02 14:21:00,75.7,59.4,30.09,SW,223,4.0,6.0,57,0.00,,,0.00,352,WeatherCatV3.00B811,2016-11-02 18:21:00,
2016-11-02 14:26:00,75.6,58.8,30.09,South,177,8.0,13.0,56,0.00,,,0.00,276,WeatherCatV3.00B811,2016-11-02 18:26:00,
2016-11-02 14:31:00,74.9,58.1,30.09,SW,225,3.0,13.0,56,0.00,,,0.00,267,WeatherCatV3.00B811,2016-11-02 18:31:00,
2016-11-02 14:36:00,74.5,58.2,30.09,West,259,4.0,6.0,57,0.00,,,0.00,162,WeatherCatV3.00B811,2016-11-02 18:36:00,
2016-11-02 14:41:00,74.3,58.1,30.09,SSW,202,4.0,7.0,57,0.00,,,0.00,183,WeatherCatV3.00B811,2016-11-02 18:41:00,
2016-11-02 14:46:00,74.4,58.6,30.09,SSW,213,4.0,7.0,58,0.00,,,0.00,172,WeatherCatV3.00B811,2016-11-02 18:46:00,
2016-11-02 14:51:00,74.2,58.9,30.09,WSW,252,4.0,6.0,59,0.00,,,0.00,174,WeatherCatV3.00B811,2016-11-02 18:51:00,
2016-11-02 14:56:00,74.1,57.9,30.09,SW,225,7.0,8.0,57,0.00,,,0.00,167,WeatherCatV3.00B811,2016-11-02 18:56:00,
2016-11-02 15:01:00,74.0,57.8,30.09,SSW,198,6.0,8.0,57,0.00,,,0.00,142,WeatherCatV3.00B811,2016-11-02 19:01:00,
2016-11-02 15:06:00,74.1,57.9,30.09,SW,236,3.0,7.0,57,0.00,,,0.00,158,WeatherCatV3.00B811,2016-11-02 19:06:00,
2016-11-02 15:11:00,74.2,58.5,30.09,WSW,247,7.0,7.0,58,0.00,,,0.00,197,WeatherCatV3.00B811,2016-11-02 19:11:00,
2016-11-02 15:16:00,74.3,59.5,30.09,SW,234,3.0,6.0,60,0.00,,,0.00,260,WeatherCatV3.00B811,2016-11-02 19:16:00,
2016-11-02 15:21:00,75.0,59.7,30.09,SW,234,2.0,5.0,59,0.00,,,0.00,272,WeatherCatV3.00B811,2016-11-02 19:21:00,
2016-11-02 15:26:00,75.0,59.2,30.08,WSW,240,0.0,1.0,58,0.00,,,0.00,288,WeatherCatV3.00B811,2016-11-02 19:26:00,
2016-11-02 15:31:00,75.0,59.2,30.08,WSW,254,0.0,0.0,58,0.00,,,0.00,135,WeatherCatV3.00B811,2016-11-02 19:31:00,
2016-11-02 15:36:00,74.9,59.1,30.08,WSW,242,0.0,2.0,58,0.00,,,0.00,118,WeatherCatV3.00B811,2016-11-02 19:36:00,
2016-11-02 15:41:00,75.2,59.4,30.08,WSW,250,0.0,1.0,58,0.00,,,0.00,113,WeatherCatV3.00B811,2016-11-02 19:41:00,
2016-11-02 15:46:00,75.1,59.3,30.08,SSW,213,0.0,1.0,58,0.00,,,0.00,127,WeatherCatV3.00B811,2016-11-02 19:46:00,
2016-11-02 15:51:00,75.5,59.2,30.08,WSW,250,6.0,6.0,57,0.00,,,0.00,120,WeatherCatV3.00B811,2016-11-02 19:51:00,
2016-11-02 15:56:00,75.7,58.9,30.08,WSW,257,6.0,15.0,56,0.00,,,0.00,105,WeatherCatV3.00B811,2016-11-02 19:56:00,
2016-11-02 16:01:00,75.8,58.0,30.08,SSW,208,4.0,8.0,54,0.00,,,0.00,111,WeatherCatV3.00B811,2016-11-02 20:01:00,
2016-11-02 16:06:00,75.8,58.0,30.08,SW,227,6.0,8.0,54,0.00,,,0.00,93,WeatherCatV3.00B811,2016-11-02 20:06:00,
2016-11-02 16:11:00,75.7,58.4,30.08,WSW,250,4.0,8.0,55,0.00,,,0.00,70,WeatherCatV3.00B811,2016-11-02 20:11:00,
2016-11-02 16:16:00,75.5,57.7,30.08,WSW,250,6.0,9.0,54,0.00,,,0.00,70,WeatherCatV3.00B811,2016-11-02 20:16:00,
2016-11-02 16:21:00,75.3,58.0,30.08,WSW,245,6.0,10.0,55,0.00,,,0.00,58,WeatherCatV3.00B811,2016-11-02 20:21:00,
2016-11-02 16:26:00,75.2,57.4,30.08,WSW,258,5.0,6.0,54,0.00,,,0.00,49,WeatherCatV3.00B811,2016-11-02 20:26:00,
2016-11-02 16:31:00,75.1,57.3,30.08,WSW,253,5.0,7.0,54,0.00,,,0.00,49,WeatherCatV3.00B811,2016-11-02 20:31:00,
2016-11-02 16:36:00,75.2,57.4,30.08,WSW,257,3.0,4.0,54,0.00,,,0.00,53,WeatherCatV3.00B811,2016-11-02 20:36:00,
2016-11-02 16:41:00,75.1,57.3,30.08,SW,227,0.0,1.0,54,0.00,,,0.00,44,WeatherCatV3.00B811,2016-11-02 20:41:00,
2016-11-02 16:46:00,75.1,57.8,30.08,WSW,253,4.0,8.0,55,0.00,,,0.00,44,WeatherCatV3.00B811,2016-11-02 20:46:00,
2016-11-02 16:51:00,74.7,57.4,30.08,SW,235,0.0,4.0,55,0.00,,,0.00,44,WeatherCatV3.00B811,2016-11-02 20:51:00,
2016-11-02 16:56:00,74.6,57.3,30.08,WSW,250,0.0,9.0,55,0.00,,,0.00,40,WeatherCatV3.00B811,2016-11-02 20:56:00,
2016-11-02 17:01:00,74.6,57.3,30.08,WSW,248,0.0,0.0,55,0.00,,,0.00,51,WeatherCatV3.00B811,2016-11-02 21:01:00,
2016-11-02 17:06:00,74.5,57.8,30.08,SW,232,0.0,0.0,56,0.00,,,0.00,49,WeatherCatV3.00B811,2016-11-02 21:06:00,
2016-11-02 17:11:00,74.5,57.2,30.08,WSW,240,0.0,1.0,55,0.00,,,0.00,35,WeatherCatV3.00B811,2016-11-02 21:11:00,
2016-11-02 17:16:00,74.2,57.5,30.08,SSW,211,1.0,2.0,56,0.00,,,0.00,30,WeatherCatV3.00B811,2016-11-02 21:16:00,
2016-11-02 17:21:00,74.1,57.4,30.08,SSW,192,2.0,2.0,56,0.00,,,0.00,28,WeatherCatV3.00B811,2016-11-02 21:21:00,
2016-11-02 17:26:00,73.7,57.0,30.08,SW,225,0.0,0.0,56,0.00,,,0.00,30,WeatherCatV3.00B811,2016-11-02 21:26:00,
2016-11-02 17:31:00,73.4,56.7,30.07,SW,214,0.0,0.0,56,0.00,,,0.00,28,WeatherCatV3.00B811,2016-11-02 21:31:00,
2016-11-02 17:36:00,73.3,56.6,30.07,SW,222,0.0,0.0,56,0.00,,,0.00,23,WeatherCatV3.00B811,2016-11-02 21:36:00,
2016-11-02 17:41:00,73.0,56.8,30.07,SSW,203,0.0,0.0,57,0.00,,,0.00,19,WeatherCatV3.00B811,2016-11-02 21:41:00,
2016-11-02 17:46:00,72.8,56.7,30.07,SSW,202,0.0,0.0,57,0.00,,,0.00,18,WeatherCatV3.00B811,2016-11-02 21:46:00,
2016-11-02 17:51:00,72.6,56.5,30.07,SSW,205,0.0,0.0,57,0.00,,,0.00,16,WeatherCatV3.00B811,2016-11-02 21:51:00,
2016-11-02 17:56:00,72.4,56.8,30.07,SSW,209,0.0,0.0,58,0.00,,,0.00,12,WeatherCatV3.00B811,2016-11-02 21:56:00,
2016-11-02 18:01:00,72.5,56.9,30.07,SSW,209,0.0,0.0,58,0.00,,,0.00,9,WeatherCatV3.00B811,2016-11-02 22:01:00,
2016-11-02 18:06:00,72.4,56.8,30.07,SSW,212,0.0,0.0,58,0.00,,,0.00,7,WeatherCatV3.00B811,2016-11-02 22:06:00,
2016-11-02 18:11:00,72.2,56.6,30.07,SSW,195,0.0,0.0,58,0.00,,,0.00,5,WeatherCatV3.00B811,2016-11-02 22:11:00,
2016-11-02 18:16:00,72.0,56.4,30.07,SSW,196,2.0,2.0,58,0.00,,,0.00,0,WeatherCatV3.00B811,2016-11-02 22:16:00,
2016-11-02 18:21:00,71.8,56.2,30.07,SSW,200,0.0,2.0,58,0.00,,,0.00,0,WeatherCatV3.00B811,2016-11-02 22:21:00,
2016-11-02 18:26:00,71.6,56.0,30.07,SSW,206,1.0,1.0,58,0.00,,,0.00,0,WeatherCatV3.00B811,2016-11-02 22:26:00,
2016-11-02 18:31:00,71.5,55.9,30.07,SW,230,0.0,3.0,58,0.00,,,0.00,0,WeatherCatV3.00B811,2016-11-02 22:31:00,
2016-11-02 18:36:00,71.4,55.8,30.07,SSW,207,0.0,1.0,58,0.00,,,0.00,0,WeatherCatV3.00B811,2016-11-02 22:36:00,
2016-11-02 18:41:00,71.3,55.8,30.07,SSW,205,1.0,3.0,58,0.00,,,0.00,0,WeatherCatV3.00B811,2016-11-02 22:41:00,
2016-11-02 18:46:00,71.2,55.7,30.07,SSW,198,0.0,2.0,58,0.00,,,0.00,0,WeatherCatV3.00B811,2016-11-02 22:46:00,
2016-11-02 18:51:00,71.1,55.6,30.07,SSW,200,1.0,3.0,58,0.00,,,0.00,0,WeatherCatV3.00B811,2016-11-02 22:51:00,
2016-11-02 18:56:00,71.1,55.6,30.07,SSW,202,2.0,3.0,58,0.00,,,0.00,0,WeatherCatV3.00B811,2016-11-02 22:56:00,
2016-11-02 19:01:00,71.0,55.5,30.07,SSW,199,0.0,3.0,58,0.00,,,0.00,0,WeatherCatV3.00B811,2016-11-02 23:01:00,
2016-11-02 19:06:00,70.9,55.4,30.07,SSW,198,0.0,0.0,58,0.00,,,0.00,0,WeatherCatV3.00B811,2016-11-02 23:06:00,
2016-11-02 19:11:00,70.8,55.3,30.07,SSW,198,0.0,0.0,58,0.00,,,0.00,0,WeatherCatV3.00B811,2016-11-02 23:11:00,
2016-11-02 19:16:00,70.7,55.7,30.07,SSW,199,0.0,0.0,59,0.00,,,0.00,0,WeatherCatV3.00B811,2016-11-02 23:16:00,
2016-11-02 19:21:00,70.6,55.6,30.07,SSW,198,0.0,0.0,59,0.00,,,0.00,0,WeatherCatV3.00B811,2016-11-02 23:21:00,
2016-11-02 19:26:00,70.4,55.4,30.07,SSW,212,0.0,0.0,59,0.00,,,0.00,0,WeatherCatV3.00B811,2016-11-02 23:26:00,
2016-11-02 19:31:00,70.3,55.3,30.07,SSW,212,0.0,0.0,59,0.00,,,0.00,0,WeatherCatV3.00B811,2016-11-02 23:31:00,
2016-11-02 19:36:00,70.2,55.2,30.07,SSW,211,0.0,0.0,59,0.00,,,0.00,0,WeatherCatV3.00B811,2016-11-02 23:36:00,
2016-11-02 19:46:00,69.9,55.4,30.07,SSW,209,0.0,0.0,60,0.00,,,0.00,0,WeatherCatV3.00B811,2016-11-02 23:46:00,
2016-11-02 19:51:00,69.7,55.2,30.07,SSW,209,0.0,0.0,60,0.00,,,0.00,0,WeatherCatV3.00B811,2016-11-02 23:51:00,
2016-11-02 19:56:00,69.5,55.5,30.07,SSW,209,0.0,0.0,61,0.00,,,0.00,0,WeatherCatV3.00B811,2016-11-02 23:56:00,
2016-11-02 20:01:00,69.3,55.3,30.07,SSW,208,0.0,0.0,61,0.00,,,0.00,0,WeatherCatV3.00B811,2016-11-03 00:01:00,
2016-11-02 20:06:00,69.0,55.0,30.07,SSW,211,0.0,0.0,61,0.00,,,0.00,0,WeatherCatV3.00B811,2016-11-03 00:06:00,
2016-11-02 20:11:00,68.8,55.2,30.07,SSW,211,0.0,0.0,62,0.00,,,0.00,0,WeatherCatV3.00B811,2016-11-03 00:11:00,
2016-11-02 20:16:00,68.8,55.2,30.07,SSW,211,0.0,0.0,62,0.00,,,0.00,0,WeatherCatV3.00B811,2016-11-03 00:16:00,
2016-11-02 20:21:00,68.6,55.5,30.07,SSW,211,0.0,0.0,63,0.00,,,0.00,0,WeatherCatV3.00B811,2016-11-03 00:21:00,
2016-11-02 20:26:00,68.3,55.6,30.07,SSW,211,0.0,0.0,64,0.00,,,0.00,0,WeatherCatV3.00B811,2016-11-03 00:26:00,
2016-11-02 20:31:00,68.0,55.4,30.07,SSW,211,0.0,0.0,64,0.00,,,0.00,0,WeatherCatV3.00B811,2016-11-03 00:31:00,
2016-11-02 20:36:00,67.6,55.4,30.07,SSW,211,0.0,0.0,65,0.00,,,0.00,0,WeatherCatV3.00B811,2016-11-03 00:36:00,
2016-11-02 20:41:00,67.2,55.5,30.06,SSW,211,0.0,0.0,66,0.00,,,0.00,0,WeatherCatV3.00B811,2016-11-03 00:41:00,
2016-11-02 20:46:00,66.8,55.5,30.06,SSW,211,0.0,0.0,67,0.00,,,0.00,0,WeatherCatV3.00B811,2016-11-03 00:46:00,
2016-11-02 20:51:00,66.5,55.2,30.06,SSW,211,0.0,0.0,67,0.00,,,0.00,0,WeatherCatV3.00B811,2016-11-03 00:51:00,
2016-11-02 20:56:00,66.2,55.3,30.06,SSW,211,0.0,0.0,68,0.00,,,0.00,0,WeatherCatV3.00B811,2016-11-03 00:56:00,
2016-11-02 21:01:00,66.0,55.5,30.06,SSW,211,0.0,0.0,69,0.00,,,0.00,0,WeatherCatV3.00B811,2016-11-03 01:01:00,
2016-11-02 21:06:00,65.8,55.3,30.05,SSW,211,0.0,0.0,69,0.00,,,0.00,0,WeatherCatV3.00B811,2016-11-03 01:06:00,
2016-11-02 21:11:00,65.6,55.5,30.05,SSW,211,0.0,0.0,70,0.00,,,0.00,0,WeatherCatV3.00B811,2016-11-03 01:11:00,
2016-11-02 21:17:00,65.4,55.3,30.05,SSW,196,0.0,0.0,70,0.00,,,0.00,0,WeatherCatV3.00B811,2016-11-03 01:17:00,
2016-11-02 21:22:00,65.2,54.8,30.05,SSW,196,2.0,5.0,69,0.00,,,0.00,0,WeatherCatV3.00B811,2016-11-03 01:22:00,
2016-11-02 21:27:00,65.3,54.9,30.05,SSW,197,3.0,5.0,69,0.00,,,0.00,0,WeatherCatV3.00B811,2016-11-03 01:27:00,
2016-11-02 21:32:00,65.7,54.8,30.05,SSW,192,5.0,5.0,68,0.00,,,0.00,0,WeatherCatV3.00B811,2016-11-03 01:32:00,
2016-11-02 21:37:00,66.2,54.9,30.05,SW,214,0.0,4.0,67,0.00,,,0.00,0,WeatherCatV3.00B811,2016-11-03 01:37:00,
2016-11-02 21:42:00,66.7,55.0,30.05,SW,215,0.0,2.0,66,0.00,,,0.00,0,WeatherCatV3.00B811,2016-11-03 01:42:00,
2016-11-02 21:47:00,67.1,54.9,30.05,SSW,204,4.0,5.0,65,0.00,,,0.00,0,WeatherCatV3.00B811,2016-11-03 01:47:00,
2016-11-02 21:52:00,67.3,54.7,30.05,SW,226,0.0,1.0,64,0.00,,,0.00,0,WeatherCatV3.00B811,2016-11-03 01:52:00,
2016-11-02 21:57:00,67.6,55.0,30.05,SSW,196,3.0,3.0,64,0.00,,,0.00,0,WeatherCatV3.00B811,2016-11-03 01:57:00,
2016-11-02 22:02:00,67.8,54.7,30.05,SSW,211,1.0,3.0,63,0.00,,,0.00,0,WeatherCatV3.00B811,2016-11-03 02:02:00,
2016-11-02 22:07:00,68.0,54.9,30.05,SSW,194,4.0,5.0,63,0.00,,,0.00,0,WeatherCatV3.00B811,2016-11-03 02:07:00,
2016-11-02 22:12:00,68.1,55.0,30.05,SSW,205,3.0,6.0,63,0.00,,,0.00,0,WeatherCatV3.00B811,2016-11-03 02:12:00,
2016-11-02 22:17:00,68.3,54.8,30.05,SSW,213,1.0,7.0,62,0.00,,,0.00,0,WeatherCatV3.00B811,2016-11-03 02:17:00,
2016-11-02 22:22:00,68.4,54.9,30.05,SW,214,4.0,8.0,62,0.00,,,0.00,0,WeatherCatV3.00B811,2016-11-03 02:22:00,
2016-11-02 22:27:00,68.6,55.0,30.05,SW,234,8.0,9.0,62,0.00,,,0.00,0,WeatherCatV3.00B811,2016-11-03 02:27:00,
2016-11-02 22:32:00,68.7,55.1,30.05,SW,221,5.0,10.0,62,0.00,,,0.00,0,WeatherCatV3.00B811,2016-11-03 02:32:00,
2016-11-02 22:37:00,68.8,55.2,30.05,SW,223,4.0,7.0,62,0.00,,,0.00,0,WeatherCatV3.00B811,2016-11-03 02:37:00,
2016-11-02 22:42:00,68.9,55.3,30.05,WSW,240,4.0,4.0,62,0.00,,,0.00,0,WeatherCatV3.00B811,2016-11-03 02:42:00,
2016-11-02 22:47:00,68.9,54.9,30.05,South,189,8.0,8.0,61,0.00,,,0.00,0,WeatherCatV3.00B811,2016-11-03 02:47:00,
2016-11-02 22:52:00,68.9,54.9,30.05,SSW,208,5.0,9.0,61,0.00,,,0.00,0,WeatherCatV3.00B811,2016-11-03 02:52:00,
2016-11-02 22:57:00,69.0,55.0,30.04,SW,227,3.0,7.0,61,0.00,,,0.00,0,WeatherCatV3.00B811,2016-11-03 02:57:00,
2016-11-02 23:02:00,69.1,55.5,30.04,SW,232,2.0,7.0,62,0.00,,,0.00,0,WeatherCatV3.00B811,2016-11-03 03:02:00,
2016-11-02 23:07:00,69.0,55.4,30.04,WSW,253,3.0,4.0,62,0.00,,,0.00,0,WeatherCatV3.00B811,2016-11-03 03:07:00,
2016-11-02 23:12:00,69.0,55.9,30.04,SSW,211,4.0,6.0,63,0.00,,,0.00,0,WeatherCatV3.00B811,2016-11-03 03:12:00,
2016-11-02 23:17:00,68.9,57.5,30.04,WSW,247,2.0,7.0,67,0.77,,,0.04,0,WeatherCatV3.00B811,2016-11-03 03:17:00,
2016-11-02 23:22:00,68.5,57.9,30.03,West,266,0.0,0.0,69,0.16,,,0.06,0,WeatherCatV3.00B811,2016-11-03 03:22:00,
2016-11-02 23:27:00,68.3,58.9,30.03,West,266,0.0,0.0,72,0.10,,,0.06,0,WeatherCatV3.00B811,2016-11-03 03:27:00,
2016-11-02 23:32:00,67.9,58.9,30.03,SW,232,0.0,0.0,73,0.05,,,0.06,0,WeatherCatV3.00B811,2016-11-03 03:32:00,
2016-11-02 23:37:00,67.5,59.3,30.03,South,173,0.0,0.0,75,0.04,,,0.06,0,WeatherCatV3.00B811,2016-11-03 03:37:00,
2016-11-02 23:42:00,67.0,59.2,30.03,SSW,197,0.0,0.0,76,0.00,,,0.06,0,WeatherCatV3.00B811,2016-11-03 03:42:00,
2016-11-02 23:47:00,66.4,59.3,30.03,SSW,194,0.0,0.0,78,0.00,,,0.06,0,WeatherCatV3.00B811,2016-11-03 03:47:00,
2016-11-02 23:52:00,65.9,59.2,30.02,South,190,0.0,0.0,79,0.00,,,0.06,0,WeatherCatV3.00B811,2016-11-03 03:52:00,
2016-11-02 23:57:00,65.3,58.6,30.02,South,188,0.0,0.0,79,0.00,,,0.06,0,WeatherCatV3.00B811,2016-11-03 03:57:00,